Flight Track Log - Related Links

Times and Time Zones

All times are in EST time to prevent confusion due to time zone crossing. See the G52652 flight status page for this flight to view local times or setup timezone preferences in your user account.

Time Position Orientation Groundspeed Altitude Reporting Facility
EST Latitude Longitude Course Direction KTS MPH feet Rate Location/Type
Fri 11:01:00 PM 22.9557 109.4014 254° West  Level Estimated
Fri 11:02:00 PM 22.9272 109.2992 253° West  Level Estimated
Fri 11:03:00 PM 22.8987 109.1971 253° West  Level Estimated
Fri 11:04:00 PM 22.8701 109.0950 253° West  Level Estimated
Fri 11:05:00 PM 22.8414 108.9929 253° West  Level Estimated
Fri 11:06:00 PM 22.8127 108.8909 253° West  Level Estimated
Fri 11:07:00 PM 22.7839 108.7889 253° West  Level Estimated
Fri 11:08:00 PM 22.7551 108.6870 253° West  Level Estimated
Fri 11:09:00 PM 22.7262 108.5851 253° West  Level Estimated
Fri 11:10:00 PM 22.6972 108.4833 253° West  Level Estimated
Fri 11:11:00 PM 22.6681 108.3815 253° West  Level Estimated
Fri 11:12:00 PM 22.6390 108.2797 253° West  Level Estimated
Fri 11:13:00 PM 22.6099 108.1780 253° West  Level Estimated
Fri 11:14:00 PM 22.6083 108.1724 253° West  Level Estimated
Fri 11:15:00 PM 22.6083 108.1724 148° Southeast  Level Estimated
Fri 11:16:00 PM 22.6083 108.1724 148° Southeast  Level Estimated
Fri 11:17:00 PM 22.6083 108.1724 148° Southeast  Level Estimated
Fri 11:18:00 PM 22.6083 108.1724 148° Southeast  Level Estimated
Fri 11:19:00 PM 22.6083 108.1724 148° Southeast  Level Estimated
Fri 11:20:00 PM 22.6083 108.1724 148° Southeast  Level Estimated
Fri 11:21:00 PM 22.6083 108.1724 148° Southeast  Level Estimated
Fri 11:22:00 PM 22.6083 108.1724 148° Southeast  Level Estimated
Fri 11:23:00 PM 22.6083 108.1724 148° Southeast  Level Estimated
Fri 11:24:00 PM 22.6083 108.1724 148° Southeast  Level Estimated
Fri 11:25:00 PM 22.6083 108.1724 148° Southeast  Level Estimated
Fri 11:26:00 PM 22.6083 108.1724 148° Southeast  Level Estimated
Fri 11:27:00 PM 22.6083 108.1724 148° Southeast  Level Estimated
Fri 11:28:00 PM 22.6083 108.1724 148° Southeast  Level Estimated
Fri 11:29:00 PM 22.6083 108.1724 148° Southeast  Level Estimated
Fri 11:30:00 PM 22.6083 108.1724 148° Southeast  Level Estimated
Fri 11:31:00 PM 22.6083 108.1724 148° Southeast  Level Estimated
Fri 11:32:00 PM 22.6083 108.1724 148° Southeast  Level Estimated
Fri 11:33:00 PM 22.6083 108.1724 148° Southeast  Level Estimated
Fri 11:34:00 PM 22.6083 108.1724 148° Southeast  Level Estimated
Fri 11:35:00 PM 22.6083 108.1724 148° Southeast  Level Estimated
Fri 11:36:00 PM 22.6083 108.1724 148° Southeast  Level Estimated
Fri 11:37:00 PM 22.6083 108.1724 148° Southeast  Level Estimated
Fri 11:38:00 PM 22.6083 108.1724 148° Southeast  Level Estimated
Fri 11:39:00 PM 22.6083 108.1724 148° Southeast  Level Estimated
Fri 11:40:00 PM 22.6083 108.1724 148° Southeast  Level Estimated
Fri 11:41:00 PM 22.6083 108.1724 148° Southeast  Level Estimated

Login

Don't have an account? Register now (free) for customized features, flight alerts, and more!